sensor_id;sensor_type;location;lat;lon;timestamp;pressure;altitude;pressure_sealevel;temperature;humidity
35307;BME280;21420;52.196;21.416;2023-02-02T00:01:24;98945.42;;;2.02;76.08
35307;BME280;21420;52.196;21.416;2023-02-02T00:03:52;98938.95;;;2.00;76.24
35307;BME280;21420;52.196;21.416;2023-02-02T00:06:23;98936.62;;;1.98;76.22
35307;BME280;21420;52.196;21.416;2023-02-02T00:08:51;98932.14;;;1.95;76.16
35307;BME280;21420;52.196;21.416;2023-02-02T00:11:18;98931.14;;;1.94;76.30
35307;BME280;21420;52.196;21.416;2023-02-02T00:13:45;98931.46;;;1.94;76.40
35307;BME280;21420;52.196;21.416;2023-02-02T00:18:53;98934.58;;;1.98;76.78
35307;BME280;21420;52.196;21.416;2023-02-02T00:21:22;98931.89;;;1.98;76.64
35307;BME280;21420;52.196;21.416;2023-02-02T00:23:50;98928.23;;;1.99;76.63
35307;BME280;21420;52.196;21.416;2023-02-02T00:26:18;98925.00;;;1.99;76.55
35307;BME280;21420;52.196;21.416;2023-02-02T00:28:45;98926.61;;;1.99;76.68
35307;BME280;21420;52.196;21.416;2023-02-02T00:31:12;98923.48;;;1.99;76.68
35307;BME280;21420;52.196;21.416;2023-02-02T00:33:44;98915.48;;;1.98;76.60
35307;BME280;21420;52.196;21.416;2023-02-02T00:36:11;98912.80;;;1.97;76.60
35307;BME280;21420;52.196;21.416;2023-02-02T00:38:38;98914.77;;;1.96;76.57
35307;BME280;21420;52.196;21.416;2023-02-02T00:41:05;98912.91;;;1.97;76.53
35307;BME280;21420;52.196;21.416;2023-02-02T00:43:33;98910.48;;;1.97;76.65
35307;BME280;21420;52.196;21.416;2023-02-02T00:46:00;98910.95;;;1.97;76.68
35307;BME280;21420;52.196;21.416;2023-02-02T00:48:27;98908.67;;;1.98;76.71
35307;BME280;21420;52.196;21.416;2023-02-02T00:50:54;98905.06;;;1.98;76.71
35307;BME280;21420;52.196;21.416;2023-02-02T00:53:22;98906.66;;;1.98;76.64
35307;BME280;21420;52.196;21.416;2023-02-02T00:55:49;98908.44;;;1.97;76.55
35307;BME280;21420;52.196;21.416;2023-02-02T00:58:16;98902.56;;;1.96;76.74
35307;BME280;21420;52.196;21.416;2023-02-02T01:00:42;98908.30;;;1.97;76.78
35307;BME280;21420;52.196;21.416;2023-02-02T01:03:09;98912.33;;;1.99;76.80
35307;BME280;21420;52.196;21.416;2023-02-02T01:05:39;98912.65;;;2.00;76.99
35307;BME280;21420;52.196;21.416;2023-02-02T01:08:07;98910.74;;;2.03;76.89
35307;BME280;21420;52.196;21.416;2023-02-02T01:10:34;98912.21;;;2.04;77.01
35307;BME280;21420;52.196;21.416;2023-02-02T01:13:01;98913.33;;;2.05;76.78
35307;BME280;21420;52.196;21.416;2023-02-02T01:15:30;98908.08;;;2.05;76.78
35307;BME280;21420;52.196;21.416;2023-02-02T01:17:57;98910.91;;;2.06;76.85
35307;BME280;21420;52.196;21.416;2023-02-02T01:20:24;98910.05;;;2.08;76.91
35307;BME280;21420;52.196;21.416;2023-02-02T01:22:51;98906.19;;;2.09;76.99
35307;BME280;21420;52.196;21.416;2023-02-02T01:25:18;98906.50;;;2.11;76.98
35307;BME280;21420;52.196;21.416;2023-02-02T01:27:46;98913.77;;;2.14;76.88
35307;BME280;21420;52.196;21.416;2023-02-02T01:30:13;98911.08;;;2.15;77.01
35307;BME280;21420;52.196;21.416;2023-02-02T01:32:40;98908.52;;;2.16;76.96
35307;BME280;21420;52.196;21.416;2023-02-02T01:35:08;98908.98;;;2.17;77.00
35307;BME280;21420;52.196;21.416;2023-02-02T01:37:37;98907.52;;;2.17;76.97
35307;BME280;21420;52.196;21.416;2023-02-02T01:40:05;98914.93;;;2.15;76.95
35307;BME280;21420;52.196;21.416;2023-02-02T01:42:33;98908.24;;;2.09;76.91
35307;BME280;21420;52.196;21.416;2023-02-02T01:47:51;98918.25;;;1.93;76.65
35307;BME280;21420;52.196;21.416;2023-02-02T01:50:20;98921.93;;;1.83;76.67
35307;BME280;21420;52.196;21.416;2023-02-02T01:52:53;98919.73;;;1.71;76.56
35307;BME280;21420;52.196;21.416;2023-02-02T01:55:22;98923.38;;;1.58;76.57
35307;BME280;21420;52.196;21.416;2023-02-02T01:57:59;98921.91;;;1.50;76.51
35307;BME280;21420;52.196;21.416;2023-02-02T02:00:28;98923.93;;;1.41;76.51
35307;BME280;21420;52.196;21.416;2023-02-02T02:03:01;98923.83;;;1.35;76.53
35307;BME280;21420;52.196;21.416;2023-02-02T02:05:34;98923.92;;;1.29;76.56
35307;BME280;21420;52.196;21.416;2023-02-02T02:08:14;98925.27;;;1.27;76.63
35307;BME280;21420;52.196;21.416;2023-02-02T02:10:41;98926.15;;;1.24;76.64
35307;BME280;21420;52.196;21.416;2023-02-02T02:13:09;98926.52;;;1.20;76.71
35307;BME280;21420;52.196;21.416;2023-02-02T02:15:44;98925.61;;;1.18;76.80
35307;BME280;21420;52.196;21.416;2023-02-02T02:39:04;98923.24;;;1.04;77.00
35307;BME280;21420;52.196;21.416;2023-02-02T02:41:38;98922.31;;;1.03;76.96
35307;BME280;21420;52.196;21.416;2023-02-02T02:44:10;98923.39;;;1.03;76.97
35307;BME280;21420;52.196;21.416;2023-02-02T02:46:38;98926.47;;;1.03;76.90
35307;BME280;21420;52.196;21.416;2023-02-02T02:49:08;98930.66;;;1.03;77.09
35307;BME280;21420;52.196;21.416;2023-02-02T02:51:48;98929.96;;;1.03;77.07
35307;BME280;21420;52.196;21.416;2023-02-02T02:54:27;98931.44;;;1.05;77.04
35307;BME280;21420;52.196;21.416;2023-02-02T03:08:39;98926.71;;;1.11;77.24
35307;BME280;21420;52.196;21.416;2023-02-02T03:11:10;98928.96;;;1.11;77.18
35307;BME280;21420;52.196;21.416;2023-02-02T03:13:39;98925.54;;;1.12;77.15
35307;BME280;21420;52.196;21.416;2023-02-02T03:19:26;98931.00;;;1.16;77.35
35307;BME280;21420;52.196;21.416;2023-02-02T03:21:53;98932.31;;;1.15;77.25
35307;BME280;21420;52.196;21.416;2023-02-02T03:24:20;98932.31;;;1.13;77.25
35307;BME280;21420;52.196;21.416;2023-02-02T03:26:47;98934.88;;;1.14;77.20
35307;BME280;21420;52.196;21.416;2023-02-02T03:29:15;98934.12;;;1.14;77.31
35307;BME280;21420;52.196;21.416;2023-02-02T03:31:42;98936.80;;;1.15;77.25
35307;BME280;21420;52.196;21.416;2023-02-02T03:34:09;98935.61;;;1.17;77.20
35307;BME280;21420;52.196;21.416;2023-02-02T03:36:36;98931.63;;;1.19;77.17
35307;BME280;21420;52.196;21.416;2023-02-02T03:39:03;98930.16;;;1.21;77.28
35307;BME280;21420;52.196;21.416;2023-02-02T03:41:30;98931.29;;;1.23;77.29
35307;BME280;21420;52.196;21.416;2023-02-02T03:43:57;98930.86;;;1.23;77.12
35307;BME280;21420;52.196;21.416;2023-02-02T03:46:24;98932.08;;;1.22;77.20
35307;BME280;21420;52.196;21.416;2023-02-02T03:48:51;98931.24;;;1.21;77.17
35307;BME280;21420;52.196;21.416;2023-02-02T03:51:18;98928.94;;;1.22;77.19
35307;BME280;21420;52.196;21.416;2023-02-02T03:53:45;98924.02;;;1.26;77.42
35307;BME280;21420;52.196;21.416;2023-02-02T03:56:15;98920.08;;;1.28;77.33
35307;BME280;21420;52.196;21.416;2023-02-02T03:58:44;98920.54;;;1.29;77.37
35307;BME280;21420;52.196;21.416;2023-02-02T04:01:13;98922.39;;;1.30;77.34
35307;BME280;21420;52.196;21.416;2023-02-02T04:03:41;98920.94;;;1.32;77.38
35307;BME280;21420;52.196;21.416;2023-02-02T04:06:08;98921.02;;;1.35;77.52
35307;BME280;21420;52.196;21.416;2023-02-02T04:08:35;98920.03;;;1.37;77.50
35307;BME280;21420;52.196;21.416;2023-02-02T04:11:02;98919.86;;;1.40;77.42
35307;BME280;21420;52.196;21.416;2023-02-02T04:13:29;98917.34;;;1.44;77.52
35307;BME280;21420;52.196;21.416;2023-02-02T04:16:00;98915.79;;;1.47;77.66
35307;BME280;21420;52.196;21.416;2023-02-02T04:18:27;98917.77;;;1.50;77.64
35307;BME280;21420;52.196;21.416;2023-02-02T04:20:58;98916.80;;;1.54;77.64
35307;BME280;21420;52.196;21.416;2023-02-02T04:23:26;98910.13;;;1.57;77.66
35307;BME280;21420;52.196;21.416;2023-02-02T04:25:55;98914.80;;;1.60;77.62
35307;BME280;21420;52.196;21.416;2023-02-02T04:28:22;98912.14;;;1.60;77.61
35307;BME280;21420;52.196;21.416;2023-02-02T04:30:50;98913.48;;;1.63;77.64
35307;BME280;21420;52.196;21.416;2023-02-02T04:33:19;98913.08;;;1.65;77.61
35307;BME280;21420;52.196;21.416;2023-02-02T04:35:46;98913.21;;;1.67;77.55
35307;BME280;21420;52.196;21.416;2023-02-02T04:38:13;98912.90;;;1.70;77.84
35307;BME280;21420;52.196;21.416;2023-02-02T04:40:42;98914.46;;;1.72;77.76
35307;BME280;21420;52.196;21.416;2023-02-02T04:43:10;98916.04;;;1.74;77.67
35307;BME280;21420;52.196;21.416;2023-02-02T04:45:38;98916.83;;;1.76;77.68
35307;BME280;21420;52.196;21.416;2023-02-02T04:48:05;98916.36;;;1.80;77.78
35307;BME280;21420;52.196;21.416;2023-02-02T04:50:32;98918.98;;;1.83;77.76
35307;BME280;21420;52.196;21.416;2023-02-02T04:52:59;98923.33;;;1.85;77.79
35307;BME280;21420;52.196;21.416;2023-02-02T04:55:26;98923.29;;;1.87;77.65
35307;BME280;21420;52.196;21.416;2023-02-02T04:57:53;98918.88;;;1.90;77.80
35307;BME280;21420;52.196;21.416;2023-02-02T05:00:20;98923.14;;;1.94;77.79
35307;BME280;21420;52.196;21.416;2023-02-02T05:02:47;98925.46;;;1.98;77.76
35307;BME280;21420;52.196;21.416;2023-02-02T05:05:14;98929.32;;;2.01;77.83
35307;BME280;21420;52.196;21.416;2023-02-02T05:07:42;98926.09;;;2.04;77.83
35307;BME280;21420;52.196;21.416;2023-02-02T05:10:09;98929.30;;;2.09;77.77
35307;BME280;21420;52.196;21.416;2023-02-02T05:12:36;98930.52;;;2.10;77.83
35307;BME280;21420;52.196;21.416;2023-02-02T05:15:04;98930.16;;;2.13;77.84
35307;BME280;21420;52.196;21.416;2023-02-02T05:17:32;98927.41;;;2.15;77.80
35307;BME280;21420;52.196;21.416;2023-02-02T05:19:59;98928.30;;;2.16;77.81
35307;BME280;21420;52.196;21.416;2023-02-02T05:22:26;98930.63;;;2.17;77.83
35307;BME280;21420;52.196;21.416;2023-02-02T05:24:52;98930.16;;;2.19;77.86
35307;BME280;21420;52.196;21.416;2023-02-02T05:27:20;98928.82;;;2.20;77.90
35307;BME280;21420;52.196;21.416;2023-02-02T05:29:47;98936.41;;;2.22;77.83
35307;BME280;21420;52.196;21.416;2023-02-02T05:32:14;98936.86;;;2.24;77.98
35307;BME280;21420;52.196;21.416;2023-02-02T05:34:41;98934.52;;;2.25;77.95
35307;BME280;21420;52.196;21.416;2023-02-02T05:37:08;98932.30;;;2.25;77.95
35307;BME280;21420;52.196;21.416;2023-02-02T05:39:35;98932.99;;;2.25;77.85
35307;BME280;21420;52.196;21.416;2023-02-02T05:42:02;98934.59;;;2.26;77.84
35307;BME280;21420;52.196;21.416;2023-02-02T05:44:29;98941.39;;;2.26;77.92
35307;BME280;21420;52.196;21.416;2023-02-02T05:46:56;98946.59;;;2.25;77.80
35307;BME280;21420;52.196;21.416;2023-02-02T05:49:23;98949.13;;;2.25;77.71
35307;BME280;21420;52.196;21.416;2023-02-02T05:51:55;98949.14;;;2.25;77.77
35307;BME280;21420;52.196;21.416;2023-02-02T05:54:23;98952.95;;;2.26;77.90
35307;BME280;21420;52.196;21.416;2023-02-02T05:56:52;98953.84;;;2.27;77.86
35307;BME280;21420;52.196;21.416;2023-02-02T05:59:20;98950.73;;;2.28;77.87
35307;BME280;21420;52.196;21.416;2023-02-02T06:01:47;98949.52;;;2.27;77.72
35307;BME280;21420;52.196;21.416;2023-02-02T06:04:15;98952.89;;;2.28;77.79
35307;BME280;21420;52.196;21.416;2023-02-02T06:06:42;98955.46;;;2.29;77.81
35307;BME280;21420;52.196;21.416;2023-02-02T06:09:09;98954.48;;;2.29;77.82
35307;BME280;21420;52.196;21.416;2023-02-02T06:11:36;98959.98;;;2.31;77.98
35307;BME280;21420;52.196;21.416;2023-02-02T06:14:05;98959.54;;;2.34;77.90
35307;BME280;21420;52.196;21.416;2023-02-02T06:16:32;98956.30;;;2.35;77.88
35307;BME280;21420;52.196;21.416;2023-02-02T06:18:59;98956.15;;;2.37;77.83
35307;BME280;21420;52.196;21.416;2023-02-02T06:21:26;98955.26;;;2.39;77.99
35307;BME280;21420;52.196;21.416;2023-02-02T06:23:57;98955.17;;;2.42;78.11
35307;BME280;21420;52.196;21.416;2023-02-02T06:26:24;98956.82;;;2.45;78.17
35307;BME280;21420;52.196;21.416;2023-02-02T06:28:53;98962.77;;;2.46;78.07
35307;BME280;21420;52.196;21.416;2023-02-02T06:31:21;98962.04;;;2.47;77.97
35307;BME280;21420;52.196;21.416;2023-02-02T06:33:54;98964.15;;;2.49;78.03
35307;BME280;21420;52.196;21.416;2023-02-02T06:36:22;98965.08;;;2.53;78.01
35307;BME280;21420;52.196;21.416;2023-02-02T06:38:51;98964.23;;;2.56;78.07
35307;BME280;21420;52.196;21.416;2023-02-02T06:41:20;98966.02;;;2.57;78.09
35307;BME280;21420;52.196;21.416;2023-02-02T06:43:48;98964.84;;;2.59;78.02
35307;BME280;21420;52.196;21.416;2023-02-02T06:46:15;98960.63;;;2.61;78.05
35307;BME280;21420;52.196;21.416;2023-02-02T06:48:42;98959.92;;;2.64;78.10
35307;BME280;21420;52.196;21.416;2023-02-02T06:51:10;98957.23;;;2.66;78.04
35307;BME280;21420;52.196;21.416;2023-02-02T06:53:36;98951.56;;;2.67;78.06
35307;BME280;21420;52.196;21.416;2023-02-02T06:56:06;98951.05;;;2.69;78.17
35307;BME280;21420;52.196;21.416;2023-02-02T06:58:33;98951.69;;;2.72;77.97
35307;BME280;21420;52.196;21.416;2023-02-02T07:01:06;98952.16;;;2.74;78.19
35307;BME280;21420;52.196;21.416;2023-02-02T07:03:34;98949.63;;;2.77;78.16
35307;BME280;21420;52.196;21.416;2023-02-02T07:08:41;98948.85;;;2.81;78.01
35307;BME280;21420;52.196;21.416;2023-02-02T07:11:08;98948.09;;;2.81;78.03
35307;BME280;21420;52.196;21.416;2023-02-02T07:13:43;98951.72;;;2.81;77.94
35307;BME280;21420;52.196;21.416;2023-02-02T07:16:10;98953.60;;;2.82;77.97
35307;BME280;21420;52.196;21.416;2023-02-02T07:18:39;98952.56;;;2.86;78.10
35307;BME280;21420;52.196;21.416;2023-02-02T07:21:06;98951.25;;;2.87;78.01
35307;BME280;21420;52.196;21.416;2023-02-02T07:23:33;98951.94;;;2.88;77.99
35307;BME280;21420;52.196;21.416;2023-02-02T07:26:07;98953.21;;;2.89;77.92
35307;BME280;21420;52.196;21.416;2023-02-02T07:28:35;98950.84;;;2.90;78.07
35307;BME280;21420;52.196;21.416;2023-02-02T07:31:13;98946.92;;;2.93;78.02
35307;BME280;21420;52.196;21.416;2023-02-02T07:33:42;98949.20;;;2.96;78.13
35307;BME280;21420;52.196;21.416;2023-02-02T07:36:14;98946.98;;;3.00;78.14
35307;BME280;21420;52.196;21.416;2023-02-02T07:38:42;98946.21;;;3.05;78.14
35307;BME280;21420;52.196;21.416;2023-02-02T07:41:10;98946.83;;;3.12;78.11
35307;BME280;21420;52.196;21.416;2023-02-02T07:43:37;98947.92;;;3.20;78.25
35307;BME280;21420;52.196;21.416;2023-02-02T07:46:06;98950.48;;;3.26;78.18
35307;BME280;21420;52.196;21.416;2023-02-02T07:48:36;98952.88;;;3.29;78.11
35307;BME280;21420;52.196;21.416;2023-02-02T07:51:06;98956.23;;;3.28;78.03
35307;BME280;21420;52.196;21.416;2023-02-02T07:53:34;98958.52;;;3.25;78.07
35307;BME280;21420;52.196;21.416;2023-02-02T07:56:13;98960.69;;;3.20;78.02
35307;BME280;21420;52.196;21.416;2023-02-02T07:58:40;98959.11;;;3.06;77.76
35307;BME280;21420;52.196;21.416;2023-02-02T08:01:09;98956.95;;;2.95;77.75
35307;BME280;21420;52.196;21.416;2023-02-02T08:03:38;98955.70;;;2.87;77.76
35307;BME280;21420;52.196;21.416;2023-02-02T08:06:17;98953.70;;;2.82;77.83
35307;BME280;21420;52.196;21.416;2023-02-02T08:08:45;98956.37;;;2.80;77.78
35307;BME280;21420;52.196;21.416;2023-02-02T08:11:15;98956.69;;;2.82;77.99
35307;BME280;21420;52.196;21.416;2023-02-02T08:13:43;98961.65;;;2.80;77.98
35307;BME280;21420;52.196;21.416;2023-02-02T08:16:10;98959.55;;;2.75;77.99
35307;BME280;21420;52.196;21.416;2023-02-02T08:18:39;98960.14;;;2.71;77.80
35307;BME280;21420;52.196;21.416;2023-02-02T08:21:07;98962.95;;;2.69;77.81
35307;BME280;21420;52.196;21.416;2023-02-02T08:23:35;98960.88;;;2.72;77.92
35307;BME280;21420;52.196;21.416;2023-02-02T08:26:08;98960.81;;;2.76;77.91
35307;BME280;21420;52.196;21.416;2023-02-02T08:28:37;98963.24;;;2.76;78.09
35307;BME280;21420;52.196;21.416;2023-02-02T08:31:09;98964.61;;;2.79;78.08
35307;BME280;21420;52.196;21.416;2023-02-02T08:33:37;98968.67;;;2.82;78.14
35307;BME280;21420;52.196;21.416;2023-02-02T08:36:11;98967.19;;;2.86;78.15
35307;BME280;21420;52.196;21.416;2023-02-02T08:38:39;98964.98;;;2.87;77.97
35307;BME280;21420;52.196;21.416;2023-02-02T08:41:08;98965.66;;;2.89;78.07
35307;BME280;21420;52.196;21.416;2023-02-02T08:43:35;98967.38;;;2.91;77.96
35307;BME280;21420;52.196;21.416;2023-02-02T08:46:03;98965.14;;;2.91;77.95
35307;BME280;21420;52.196;21.416;2023-02-02T08:48:33;98967.69;;;2.91;77.95
35307;BME280;21420;52.196;21.416;2023-02-02T08:51:01;98966.55;;;2.93;78.02
35307;BME280;21420;52.196;21.416;2023-02-02T08:53:29;98969.43;;;2.96;78.00
35307;BME280;21420;52.196;21.416;2023-02-02T08:56:11;98975.03;;;2.98;77.98
35307;BME280;21420;52.196;21.416;2023-02-02T08:58:38;98975.38;;;3.01;78.00
35307;BME280;21420;52.196;21.416;2023-02-02T09:01:18;98973.70;;;3.01;78.00
35307;BME280;21420;52.196;21.416;2023-02-02T09:03:45;98972.30;;;3.03;78.00
35307;BME280;21420;52.196;21.416;2023-02-02T09:06:17;98970.58;;;3.11;78.23
35307;BME280;21420;52.196;21.416;2023-02-02T09:08:45;98971.63;;;3.16;78.18
35307;BME280;21420;52.196;21.416;2023-02-02T09:11:17;98971.54;;;3.19;78.12
35307;BME280;21420;52.196;21.416;2023-02-02T09:13:47;98969.34;;;3.24;78.27
35307;BME280;21420;52.196;21.416;2023-02-02T09:16:20;98976.17;;;3.30;78.11
35307;BME280;21420;52.196;21.416;2023-02-02T09:18:47;98973.46;;;3.33;78.13
35307;BME280;21420;52.196;21.416;2023-02-02T09:21:16;98973.48;;;3.38;78.11
35307;BME280;21420;52.196;21.416;2023-02-02T09:23:44;98971.39;;;3.39;78.05
35307;BME280;21420;52.196;21.416;2023-02-02T09:28:45;98975.10;;;3.45;78.02
35307;BME280;21420;52.196;21.416;2023-02-02T09:31:13;98974.14;;;3.46;78.06
35307;BME280;21420;52.196;21.416;2023-02-02T09:33:41;98977.38;;;3.49;78.19
35307;BME280;21420;52.196;21.416;2023-02-02T09:36:11;98972.59;;;3.53;78.18
35307;BME280;21420;52.196;21.416;2023-02-02T09:38:38;98977.01;;;3.55;78.14
35307;BME280;21420;52.196;21.416;2023-02-02T09:49:12;98989.02;;;3.60;78.14
35307;BME280;21420;52.196;21.416;2023-02-02T09:51:46;98988.41;;;3.62;78.15
35307;BME280;21420;52.196;21.416;2023-02-02T09:54:35;98988.08;;;3.68;78.30
35307;BME280;21420;52.196;21.416;2023-02-02T09:57:13;98994.24;;;3.73;78.22
35307;BME280;21420;52.196;21.416;2023-02-02T09:59:43;98994.65;;;3.76;78.08
35307;BME280;21420;52.196;21.416;2023-02-02T10:02:26;98989.58;;;3.77;78.12
35307;BME280;21420;52.196;21.416;2023-02-02T10:05:03;98997.94;;;3.81;78.24
35307;BME280;21420;52.196;21.416;2023-02-02T10:07:38;99000.95;;;3.81;78.14
35307;BME280;21420;52.196;21.416;2023-02-02T10:10:18;99003.98;;;3.79;77.96
35307;BME280;21420;52.196;21.416;2023-02-02T10:13:04;99007.35;;;3.80;78.03
35307;BME280;21420;52.196;21.416;2023-02-02T10:21:11;99014.98;;;3.77;78.00
35307;BME280;21420;52.196;21.416;2023-02-02T10:23:41;99016.52;;;3.78;78.04
35307;BME280;21420;52.196;21.416;2023-02-02T10:26:18;99016.40;;;3.78;78.07
35307;BME280;21420;52.196;21.416;2023-02-02T10:45:35;99039.61;;;3.52;77.70
35307;BME280;21420;52.196;21.416;2023-02-02T10:48:13;99041.70;;;3.54;77.84
35307;BME280;21420;52.196;21.416;2023-02-02T10:50:43;99040.50;;;3.55;77.80
35307;BME280;21420;52.196;21.416;2023-02-02T10:53:14;99040.86;;;3.60;77.88
35307;BME280;21420;52.196;21.416;2023-02-02T10:55:50;99041.06;;;3.61;77.82
35307;BME280;21420;52.196;21.416;2023-02-02T11:00:53;99043.80;;;3.64;77.86
35307;BME280;21420;52.196;21.416;2023-02-02T11:03:25;99047.44;;;3.73;77.94
35307;BME280;21420;52.196;21.416;2023-02-02T11:05:53;99050.20;;;3.87;78.23
35307;BME280;21420;52.196;21.416;2023-02-02T11:08:41;99050.27;;;3.98;78.17
35307;BME280;21420;52.196;21.416;2023-02-02T11:16:37;99057.48;;;4.01;77.96
35307;BME280;21420;52.196;21.416;2023-02-02T11:21:51;99071.70;;;4.00;77.99
35307;BME280;21420;52.196;21.416;2023-02-02T11:24:48;99073.16;;;4.04;77.96
35307;BME280;21420;52.196;21.416;2023-02-02T11:27:18;99074.86;;;4.07;78.03
35307;BME280;21420;52.196;21.416;2023-02-02T11:29:51;99079.43;;;4.07;78.09
35307;BME280;21420;52.196;21.416;2023-02-02T11:37:30;99092.14;;;4.00;77.86
35307;BME280;21420;52.196;21.416;2023-02-02T11:40:28;99091.86;;;3.95;77.86
35307;BME280;21420;52.196;21.416;2023-02-02T11:42:59;99098.02;;;3.86;77.75
35307;BME280;21420;52.196;21.416;2023-02-02T11:45:33;99104.47;;;3.79;77.67
35307;BME280;21420;52.196;21.416;2023-02-02T11:51:04;99108.52;;;3.68;77.73
35307;BME280;21420;52.196;21.416;2023-02-02T11:53:34;99115.84;;;3.68;77.87
35307;BME280;21420;52.196;21.416;2023-02-02T11:56:16;99123.61;;;3.74;77.91
35307;BME280;21420;52.196;21.416;2023-02-02T11:58:55;99125.91;;;3.83;78.02
35307;BME280;21420;52.196;21.416;2023-02-02T12:04:01;99127.90;;;3.93;78.00
35307;BME280;21420;52.196;21.416;2023-02-02T12:09:01;99133.27;;;4.00;77.97
35307;BME280;21420;52.196;21.416;2023-02-02T12:14:17;99138.48;;;4.00;78.01
35307;BME280;21420;52.196;21.416;2023-02-02T12:20:20;99146.75;;;4.03;78.00
35307;BME280;21420;52.196;21.416;2023-02-02T12:23:00;99148.82;;;4.04;77.80
35307;BME280;21420;52.196;21.416;2023-02-02T12:34:35;99169.09;;;3.99;77.92
35307;BME280;21420;52.196;21.416;2023-02-02T12:43:35;99173.05;;;4.12;78.00
35307;BME280;21420;52.196;21.416;2023-02-02T13:00:16;99195.28;;;4.14;77.85
35307;BME280;21420;52.196;21.416;2023-02-02T13:05:43;99206.34;;;4.10;77.82
35307;BME280;21420;52.196;21.416;2023-02-02T13:08:39;99214.25;;;4.09;77.86
35307;BME280;21420;52.196;21.416;2023-02-02T13:11:38;99219.70;;;4.08;77.79
35307;BME280;21420;52.196;21.416;2023-02-02T13:16:36;99224.01;;;4.00;77.69
35307;BME280;21420;52.196;21.416;2023-02-02T13:19:10;99231.15;;;3.97;77.74
35307;BME280;21420;52.196;21.416;2023-02-02T13:21:40;99230.19;;;3.91;77.62
35307;BME280;21420;52.196;21.416;2023-02-02T13:24:13;99237.48;;;3.85;77.53
35307;BME280;21420;52.196;21.416;2023-02-02T13:26:43;99246.64;;;3.76;77.51
35307;BME280;21420;52.196;21.416;2023-02-02T13:34:49;99259.45;;;3.62;77.59
35307;BME280;21420;52.196;21.416;2023-02-02T13:40:04;99273.52;;;3.59;77.64
35307;BME280;21420;52.196;21.416;2023-02-02T13:56:33;99322.15;;;3.56;77.70
35307;BME280;21420;52.196;21.416;2023-02-02T14:01:31;99336.80;;;3.55;77.73
35307;BME280;21420;52.196;21.416;2023-02-02T14:03:59;99337.33;;;3.55;77.70
35307;BME280;21420;52.196;21.416;2023-02-02T14:06:27;99344.98;;;3.57;77.70
35307;BME280;21420;52.196;21.416;2023-02-02T14:09:02;99355.23;;;3.58;77.78
35307;BME280;21420;52.196;21.416;2023-02-02T14:11:38;99361.88;;;3.57;77.81
35307;BME280;21420;52.196;21.416;2023-02-02T14:14:17;99365.79;;;3.57;77.83
35307;BME280;21420;52.196;21.416;2023-02-02T14:19:51;99384.48;;;3.58;77.82
35307;BME280;21420;52.196;21.416;2023-02-02T14:28:15;99403.15;;;3.62;77.77
35307;BME280;21420;52.196;21.416;2023-02-02T14:31:17;99409.26;;;3.62;77.75
35307;BME280;21420;52.196;21.416;2023-02-02T14:34:14;99418.28;;;3.61;77.76
35307;BME280;21420;52.196;21.416;2023-02-02T14:45:39;99442.88;;;3.53;77.72
35307;BME280;21420;52.196;21.416;2023-02-02T14:48:22;99446.77;;;3.53;77.68
35307;BME280;21420;52.196;21.416;2023-02-02T14:50:56;99452.08;;;3.53;77.69
35307;BME280;21420;52.196;21.416;2023-02-02T14:56:18;99459.66;;;3.55;77.79
35307;BME280;21420;52.196;21.416;2023-02-02T14:58:56;99471.28;;;3.55;77.82
35307;BME280;21420;52.196;21.416;2023-02-02T15:01:32;99478.33;;;3.55;77.74
35307;BME280;21420;52.196;21.416;2023-02-02T15:06:49;99502.18;;;3.56;77.69
35307;BME280;21420;52.196;21.416;2023-02-02T15:14:33;99524.23;;;3.44;77.44
35307;BME280;21420;52.196;21.416;2023-02-02T15:19:53;99520.05;;;3.18;77.37
35307;BME280;21420;52.196;21.416;2023-02-02T15:24:58;99529.25;;;3.05;77.36
35307;BME280;21420;52.196;21.416;2023-02-02T15:27:30;99538.93;;;2.99;77.49
35307;BME280;21420;52.196;21.416;2023-02-02T15:30:02;99542.57;;;2.96;77.47
35307;BME280;21420;52.196;21.416;2023-02-02T15:32:30;99548.48;;;2.93;77.51
35307;BME280;21420;52.196;21.416;2023-02-02T15:35:03;99561.00;;;2.88;77.38
35307;BME280;21420;52.196;21.416;2023-02-02T15:37:35;99570.77;;;2.79;77.36
35307;BME280;21420;52.196;21.416;2023-02-02T15:40:15;99576.73;;;2.68;77.26
35307;BME280;21420;52.196;21.416;2023-02-02T15:42:49;99586.58;;;2.54;77.20
35307;BME280;21420;52.196;21.416;2023-02-02T15:47:57;99599.33;;;2.30;77.19
35307;BME280;21420;52.196;21.416;2023-02-02T15:50:25;99609.84;;;2.25;77.26
35307;BME280;21420;52.196;21.416;2023-02-02T15:52:53;99617.90;;;2.25;77.46
35307;BME280;21420;52.196;21.416;2023-02-02T15:55:33;99621.45;;;2.25;77.44
35307;BME280;21420;52.196;21.416;2023-02-02T15:58:01;99626.77;;;2.27;77.53
35307;BME280;21420;52.196;21.416;2023-02-02T16:00:34;99635.02;;;2.31;77.59
35307;BME280;21420;52.196;21.416;2023-02-02T16:08:02;99660.45;;;2.23;77.51
35307;BME280;21420;52.196;21.416;2023-02-02T16:10:33;99661.06;;;2.16;77.57
35307;BME280;21420;52.196;21.416;2023-02-02T16:13:01;99663.02;;;2.06;77.41
35307;BME280;21420;52.196;21.416;2023-02-02T16:15:30;99675.13;;;1.99;77.27
35307;BME280;21420;52.196;21.416;2023-02-02T16:18:05;99678.10;;;1.92;77.32
35307;BME280;21420;52.196;21.416;2023-02-02T16:20:35;99686.59;;;1.84;77.29
35307;BME280;21420;52.196;21.416;2023-02-02T16:23:10;99693.55;;;1.78;77.22
35307;BME280;21420;52.196;21.416;2023-02-02T16:25:51;99698.41;;;1.74;77.22
35307;BME280;21420;52.196;21.416;2023-02-02T16:28:20;99708.20;;;1.70;77.32
35307;BME280;21420;52.196;21.416;2023-02-02T16:30:49;99717.34;;;1.69;77.28
35307;BME280;21420;52.196;21.416;2023-02-02T16:36:03;99720.17;;;1.70;77.34
35307;BME280;21420;52.196;21.416;2023-02-02T16:38:52;99725.84;;;1.74;77.41
35307;BME280;21420;52.196;21.416;2023-02-02T16:41:34;99734.27;;;1.77;77.41
35307;BME280;21420;52.196;21.416;2023-02-02T16:44:34;99740.56;;;1.79;77.50
35307;BME280;21420;52.196;21.416;2023-02-02T16:47:05;99744.16;;;1.81;77.47
35307;BME280;21420;52.196;21.416;2023-02-02T16:49:33;99747.66;;;1.81;77.39